Time;durP1;ratioP1;P1;durP2;ratioP2;P2;SDS_P1;SDS_P2;PMS_P1;PMS_P2;Temp;Humidity;BMP_temperature;BMP_pressure;BME280_temperature;BME280_humidity;BME280_pressure;Samples;Min_cycle;Max_cycle;Signal;HPM_P1;HPM_P2
2023/06/13 00:02:22;;;;;;;2.30;1.23;;;18.50;66.00;;;;;;5073686;28;20456;-86
2023/06/13 00:04:51;;;;;;;2.80;2.23;;;18.30;66.00;;;;;;5073495;28;20507;-85
2023/06/13 00:07:18;;;;;;;3.63;1.63;;;18.40;66.00;;;;;;5073078;28;20471;-84
2023/06/13 00:09:45;;;;;;;1.70;1.50;;;18.30;66.40;;;;;;5073010;28;20449;-84
2023/06/13 00:12:12;;;;;;;3.13;1.70;;;18.30;66.30;;;;;;5073474;28;20448;-85
2023/06/13 00:14:39;;;;;;;4.63;2.00;;;18.30;66.30;;;;;;5072779;28;20868;-86
2023/06/13 00:17:07;;;;;;;2.60;1.90;;;18.30;66.70;;;;;;5072593;28;20982;-85
2023/06/13 00:19:36;;;;;;;1.83;1.70;;;18.20;67.10;;;;;;5076122;28;20874;-85
2023/06/13 00:22:03;;;;;;;1.50;1.40;;;18.20;67.20;;;;;;5076269;28;20488;-84
2023/06/13 00:24:29;;;;;;;2.70;1.70;;;18.10;67.40;;;;;;5076223;28;20487;-84
2023/06/13 00:26:56;;;;;;;1.60;1.50;;;18.10;67.60;;;;;;5076456;28;20465;-85
2023/06/13 00:29:23;;;;;;;2.23;1.40;;;18.00;67.60;;;;;;5076470;28;20459;-82
2023/06/13 00:31:50;;;;;;;2.97;1.60;;;17.90;67.90;;;;;;5076366;28;20441;-82
2023/06/13 00:34:17;;;;;;;3.10;1.90;;;17.90;68.00;;;;;;5075955;28;20815;-83
2023/06/13 00:36:45;;;;;;;2.33;1.40;;;17.90;68.30;;;;;;5076295;28;20539;-83
2023/06/13 00:39:12;;;;;;;2.90;1.23;;;17.90;69.80;;;;;;5076269;28;20425;-83
2023/06/13 00:41:39;;;;;;;5.70;1.47;;;17.90;68.90;;;;;;5076161;28;20475;-83
2023/06/13 00:44:06;;;;;;;1.73;1.20;;;17.80;69.10;;;;;;5076058;28;20476;-82
2023/06/13 00:46:35;;;;;;;2.03;1.30;;;17.80;69.20;;;;;;5076028;28;20479;-83
2023/06/13 00:49:05;;;;;;;2.00;1.60;;;17.70;69.80;;;;;;5075777;28;20448;-82
2023/06/13 00:51:35;;;;;;;4.17;2.30;;;17.70;70.00;;;;;;5076030;28;20445;-82
2023/06/13 00:54:06;;;;;;;1.77;1.50;;;17.70;70.00;;;;;;5075892;28;20532;-83
2023/06/13 00:56:34;;;;;;;1.73;1.40;;;17.70;70.00;;;;;;5075886;28;20469;-83
2023/06/13 00:59:03;;;;;;;2.37;1.60;;;17.60;69.90;;;;;;5075857;28;20448;-83
2023/06/13 01:01:30;;;;;;;3.90;1.30;;;17.60;70.20;;;;;;5075558;28;20959;-82
2023/06/13 01:03:59;;;;;;;1.73;1.30;;;17.60;70.40;;;;;;5075413;28;20996;-82
2023/06/13 01:06:28;;;;;;;2.50;2.00;;;17.50;70.60;;;;;;5075694;28;20555;-83
2023/06/13 01:08:58;;;;;;;3.03;1.87;;;17.40;70.80;;;;;;5075914;28;20469;-83
2023/06/13 01:11:34;;;;;;;3.10;1.67;;;17.40;71.10;;;;;;5075630;28;20544;-83
2023/06/13 01:14:08;;;;;;;4.83;1.43;;;17.40;71.50;;;;;;5075673;28;20429;-83
2023/06/13 01:16:45;;;;;;;2.60;1.77;;;17.30;71.40;;;;;;5075196;28;20464;-83
2023/06/13 01:19:28;;;;;;;1.33;1.13;;;17.20;71.70;;;;;;5076349;28;20437;-82
2023/06/13 01:21:57;;;;;;;2.40;1.40;;;17.20;71.60;;;;;;5075066;28;20488;-83
2023/06/13 01:24:35;;;;;;;2.93;1.70;;;17.20;72.00;;;;;;5075443;28;20473;-82
2023/06/13 01:27:05;;;;;;;2.40;1.73;;;17.10;71.90;;;;;;5075316;28;20547;-83
2023/06/13 01:29:34;;;;;;;1.60;1.50;;;17.10;72.40;;;;;;5074987;28;20502;-83
2023/06/13 01:32:02;;;;;;;1.37;1.27;;;17.10;72.50;;;;;;5075294;28;20449;-83
2023/06/13 01:34:29;;;;;;;2.70;1.70;;;17.00;72.50;;;;;;5074918;28;20441;-82
2023/06/13 01:36:56;;;;;;;2.90;1.50;;;17.00;72.90;;;;;;5075051;28;20488;-83
2023/06/13 01:39:23;;;;;;;1.30;1.20;;;16.90;73.20;;;;;;5074797;28;20928;-83
2023/06/13 01:41:51;;;;;;;1.37;1.27;;;16.90;73.50;;;;;;5075120;28;20461;-82
2023/06/13 01:44:21;;;;;;;2.63;2.10;;;16.80;73.50;;;;;;5075108;28;20472;-83
2023/06/13 01:47:02;;;;;;;1.87;1.33;;;16.80;74.00;;;;;;5074977;28;20468;-83
2023/06/13 01:49:34;;;;;;;2.80;1.50;;;16.70;75.30;;;;;;5075486;28;20827;-82
2023/06/13 01:52:09;;;;;;;3.23;1.80;;;16.70;74.50;;;;;;5074929;28;20444;-83
2023/06/13 01:54:41;;;;;;;1.37;1.27;;;16.60;74.30;;;;;;5074874;28;20437;-82
2023/06/13 01:57:10;;;;;;;2.53;1.87;;;16.60;74.60;;;;;;5074775;28;20468;-83
2023/06/13 01:59:39;;;;;;;5.70;2.00;;;16.50;75.10;;;;;;5074394;28;20945;-83
2023/06/13 02:02:07;;;;;;;2.47;1.73;;;16.50;75.30;;;;;;5074316;28;20452;-82
2023/06/13 02:04:39;;;;;;;1.20;1.00;;;16.50;75.40;;;;;;5074200;28;20484;-83
2023/06/13 02:07:08;;;;;;;1.83;1.50;;;16.50;75.50;;;;;;5074418;28;20453;-83
2023/06/13 02:09:35;;;;;;;3.33;2.63;;;16.40;75.90;;;;;;5074531;28;20441;-83
2023/06/13 02:12:02;;;;;;;1.53;0.83;;;16.40;75.80;;;;;;5074145;28;20791;-83
2023/06/13 02:14:29;;;;;;;5.53;1.30;;;16.40;75.70;;;;;;5074385;28;20437;-83
2023/06/13 02:16:59;;;;;;;2.10;1.30;;;16.40;76.40;;;;;;5074257;28;20503;-82
2023/06/13 02:19:26;;;;;;;5.73;1.80;;;16.40;76.40;;;;;;5073956;28;20941;-83
2023/06/13 02:21:53;;;;;;;1.73;1.63;;;16.30;76.70;;;;;;5073833;28;20483;-82
2023/06/13 02:24:20;;;;;;;1.40;1.30;;;16.20;76.80;;;;;;5074125;28;20488;-82
2023/06/13 02:26:47;;;;;;;3.50;1.70;;;16.20;77.00;;;;;;5073760;28;20846;-82
2023/06/13 02:29:14;;;;;;;4.30;2.03;;;16.20;77.10;;;;;;5074069;28;20453;-82
2023/06/13 02:31:42;;;;;;;1.87;1.60;;;16.20;77.20;;;;;;5074050;28;20457;-82
2023/06/13 02:34:10;;;;;;;1.77;1.43;;;16.20;77.20;;;;;;5073996;28;20443;-83
2023/06/13 02:36:37;;;;;;;1.33;1.23;;;16.20;77.10;;;;;;5073961;28;20465;-82
2023/06/13 02:39:04;;;;;;;3.93;1.27;;;16.20;77.50;;;;;;5073962;28;20449;-83
2023/06/13 02:41:31;;;;;;;1.67;1.50;;;16.10;78.00;;;;;;5072888;28;20945;-81
2023/06/13 02:43:57;;;;;;;3.40;1.97;;;16.10;78.00;;;;;;5073501;28;20992;-83
2023/06/13 02:46:24;;;;;;;3.73;1.63;;;16.00;78.20;;;;;;5073523;28;20976;-83
2023/06/13 02:48:51;;;;;;;1.40;1.30;;;16.00;78.60;;;;;;5073785;28;20441;-82
2023/06/13 02:51:19;;;;;;;2.80;2.00;;;15.90;78.70;;;;;;5073784;28;20453;-83
2023/06/13 02:53:46;;;;;;;14.33;1.97;;;15.80;78.80;;;;;;5073691;28;20448;-83
2023/06/13 02:56:12;;;;;;;2.30;1.77;;;15.80;79.30;;;;;;5073646;28;20840;-82
2023/06/13 02:58:39;;;;;;;2.07;1.97;;;15.70;79.50;;;;;;5073678;28;20452;-83
2023/06/13 03:01:06;;;;;;;2.33;1.30;;;15.70;79.50;;;;;;5073648;28;20441;-83
2023/06/13 03:03:34;;;;;;;2.83;0.90;;;15.70;80.00;;;;;;5073526;28;20452;-82
2023/06/13 03:06:01;;;;;;;2.37;1.30;;;15.70;79.80;;;;;;5073687;28;20461;-82
2023/06/13 03:08:30;;;;;;;2.53;1.30;;;15.70;79.90;;;;;;5073265;28;20911;-82
2023/06/13 03:10:57;;;;;;;3.93;1.67;;;15.70;80.00;;;;;;5073469;28;20457;-83
2023/06/13 03:13:24;;;;;;;2.70;1.30;;;15.60;80.10;;;;;;5073455;28;20444;-83
2023/06/13 03:15:51;;;;;;;2.70;1.57;;;15.60;80.80;;;;;;5073401;28;20824;-83
2023/06/13 03:18:18;;;;;;;5.70;1.10;;;15.50;80.70;;;;;;5073090;28;20500;-82
2023/06/13 03:20:47;;;;;;;2.40;1.63;;;15.50;80.80;;;;;;5073176;28;20488;-82
2023/06/13 03:23:15;;;;;;;1.50;1.40;;;15.50;80.90;;;;;;5073428;28;20437;-83
2023/06/13 03:25:43;;;;;;;2.83;2.03;;;15.40;81.00;;;;;;5073173;28;20862;-82
2023/06/13 03:28:10;;;;;;;1.83;1.33;;;15.40;81.10;;;;;;5073032;28;20460;-83
2023/06/13 03:30:38;;;;;;;2.23;1.50;;;15.40;81.50;;;;;;5073353;28;20436;-83
2023/06/13 03:33:05;;;;;;;1.60;1.50;;;15.40;81.70;;;;;;5072986;28;20838;-83
2023/06/13 03:35:31;;;;;;;2.83;1.07;;;15.30;81.90;;;;;;5072858;28;20448;-83
2023/06/13 03:37:58;;;;;;;1.80;1.63;;;15.40;81.90;;;;;;5073268;28;20445;-82
2023/06/13 03:40:25;;;;;;;1.80;1.70;;;15.40;82.30;;;;;;5072890;28;20452;-83
2023/06/13 03:42:53;;;;;;;2.20;1.30;;;15.50;82.10;;;;;;5073205;28;20448;-82
2023/06/13 03:45:25;;;;;;;1.57;1.20;;;15.50;81.80;;;;;;5073027;28;20476;-82
2023/06/13 03:47:52;;;;;;;2.00;1.57;;;15.60;82.30;;;;;;5073090;28;20456;-83
2023/06/13 03:50:19;;;;;;;2.10;1.53;;;15.50;82.00;;;;;;5073101;28;20523;-83
2023/06/13 03:52:46;;;;;;;4.03;1.77;;;15.60;81.80;;;;;;5075233;28;20448;-83
2023/06/13 03:55:13;;;;;;;1.40;1.10;;;15.60;82.00;;;;;;5077102;28;20452;-83
2023/06/13 03:57:40;;;;;;;1.63;1.10;;;15.60;81.80;;;;;;5076963;28;20464;-83
2023/06/13 04:00:10;;;;;;;1.40;1.30;;;15.60;82.30;;;;;;5076714;28;20455;-83
2023/06/13 04:02:37;;;;;;;3.50;1.60;;;15.60;82.60;;;;;;5076977;28;20801;-83
2023/06/13 04:05:06;;;;;;;2.67;1.67;;;15.70;82.70;;;;;;5077105;28;20495;-83
2023/06/13 04:07:33;;;;;;;3.50;1.70;;;15.70;82.80;;;;;;5076869;28;20515;-83
2023/06/13 04:10:00;;;;;;;1.93;1.33;;;15.80;82.10;;;;;;5076829;28;20452;-83
2023/06/13 04:12:28;;;;;;;1.40;1.30;;;15.80;82.10;;;;;;5076811;28;20453;-83
2023/06/13 04:14:55;;;;;;;2.67;1.80;;;15.80;82.00;;;;;;5076703;28;20451;-83
2023/06/13 04:17:23;;;;;;;5.93;1.73;;;15.90;81.70;;;;;;5076560;28;20469;-83
2023/06/13 04:19:50;;;;;;;1.47;1.37;;;15.90;82.00;;;;;;5076574;28;20436;-83
2023/06/13 04:22:18;;;;;;;3.60;1.90;;;15.80;81.50;;;;;;5076116;28;20480;-83
2023/06/13 04:24:45;;;;;;;1.30;1.30;;;15.90;82.70;;;;;;5076385;28;20539;-83
2023/06/13 04:27:13;;;;;;;1.57;1.23;;;15.90;81.80;;;;;;5076385;28;20465;-83
2023/06/13 04:29:43;;;;;;;1.97;1.67;;;15.90;81.60;;;;;;5076058;28;20864;-84
2023/06/13 04:32:13;;;;;;;1.00;0.97;;;15.90;81.40;;;;;;5076413;28;20480;-83
2023/06/13 04:34:44;;;;;;;1.27;1.17;;;16.00;81.40;;;;;;5076391;28;20887;-83
2023/06/13 04:37:11;;;;;;;1.63;1.13;;;16.00;80.90;;;;;;5076319;28;20538;-83
2023/06/13 04:39:38;;;;;;;2.00;1.10;;;16.10;80.50;;;;;;5076288;28;20536;-83
2023/06/13 04:42:05;;;;;;;1.40;1.30;;;16.10;80.50;;;;;;5076224;28;20445;-83
2023/06/13 04:44:33;;;;;;;1.50;1.40;;;16.10;80.00;;;;;;5075771;28;21052;-83
2023/06/13 04:47:01;;;;;;;1.07;0.97;;;16.10;80.30;;;;;;5076087;28;20521;-82
2023/06/13 04:49:28;;;;;;;1.50;1.33;;;16.20;80.20;;;;;;5075996;28;20480;-83
2023/06/13 04:51:58;;;;;;;1.27;1.17;;;16.10;79.90;;;;;;5076257;28;20456;-83
2023/06/13 04:54:25;;;;;;;2.50;1.37;;;16.20;79.90;;;;;;5075688;28;20964;-83
2023/06/13 04:56:52;;;;;;;2.37;1.53;;;16.30;80.50;;;;;;5075917;28;20452;-83
2023/06/13 04:59:20;;;;;;;3.03;1.07;;;16.30;79.70;;;;;;5075929;28;20456;-83
2023/06/13 05:01:47;;;;;;;1.73;1.27;;;16.30;80.00;;;;;;5075861;28;20498;-83
2023/06/13 05:04:15;;;;;;;1.90;1.50;;;16.40;79.70;;;;;;5074971;28;20540;-83
2023/06/13 05:06:42;;;;;;;2.70;1.10;;;16.40;80.00;;;;;;5075688;28;20469;-83
2023/06/13 05:09:12;;;;;;;1.10;1.00;;;16.50;79.80;;;;;;5075446;28;20429;-83
2023/06/13 05:11:38;;;;;;;2.40;1.10;;;16.60;79.60;;;;;;5077899;28;20453;-82
2023/06/13 05:14:05;;;;;;;2.50;1.40;;;16.70;80.20;;;;;;5075725;28;20460;-82
2023/06/13 05:16:34;;;;;;;2.30;1.17;;;16.60;79.90;;;;;;5076250;28;20465;-83
2023/06/13 05:19:01;;;;;;;1.57;1.50;;;16.70;80.20;;;;;;5075506;28;20452;-83
2023/06/13 05:21:28;;;;;;;1.67;1.27;;;16.70;79.30;;;;;;5075141;28;20477;-83
2023/06/13 05:23:56;;;;;;;2.53;2.33;;;16.80;79.60;;;;;;5075064;28;20453;-83
2023/06/13 05:26:24;;;;;;;1.37;1.27;;;16.80;79.40;;;;;;5074917;28;20572;-83
2023/06/13 05:28:50;;;;;;;1.30;1.20;;;16.90;77.70;;;;;;5075053;28;20913;-83
2023/06/13 05:31:17;;;;;;;2.40;1.43;;;17.10;76.60;;;;;;5075011;28;20444;-83
2023/06/13 05:33:44;;;;;;;1.13;1.00;;;17.20;76.60;;;;;;5075250;28;20568;-83
2023/06/13 05:36:11;;;;;;;1.27;1.17;;;17.20;77.00;;;;;;5075092;28;20465;-82
2023/06/13 05:38:38;;;;;;;1.30;1.20;;;17.20;76.40;;;;;;5075189;28;20855;-84
2023/06/13 05:41:05;;;;;;;1.77;1.33;;;17.30;76.10;;;;;;5074776;28;20962;-83
2023/06/13 05:43:33;;;;;;;1.67;1.20;;;17.30;75.60;;;;;;5074771;28;20453;-83
2023/06/13 05:45:59;;;;;;;0.80;0.80;;;17.50;75.20;;;;;;5074858;28;20484;-83
2023/06/13 05:48:28;;;;;;;2.30;1.40;;;17.50;74.30;;;;;;5074710;28;20443;-83
2023/06/13 05:50:55;;;;;;;2.07;1.40;;;17.60;74.10;;;;;;5074930;28;20514;-84
2023/06/13 05:53:21;;;;;;;1.83;1.50;;;17.70;73.40;;;;;;5074932;28;20464;-83
2023/06/13 05:55:48;;;;;;;2.20;1.00;;;17.70;72.40;;;;;;5074421;28;20999;-83
2023/06/13 05:58:15;;;;;;;2.93;1.40;;;17.80;71.80;;;;;;5074502;28;20433;-83
2023/06/13 06:00:45;;;;;;;1.80;1.50;;;17.90;71.20;;;;;;5074705;28;20441;-83
2023/06/13 06:03:12;;;;;;;5.27;1.30;;;18.00;70.80;;;;;;5074397;28;20956;-83
2023/06/13 06:05:38;;;;;;;2.73;1.20;;;18.10;69.00;;;;;;5074214;28;20473;-83
2023/06/13 06:08:06;;;;;;;3.90;1.13;;;18.20;69.30;;;;;;5074847;28;20487;-84
2023/06/13 06:10:32;;;;;;;7.13;1.07;;;18.30;69.80;;;;;;5074465;28;20456;-84
2023/06/13 06:12:59;;;;;;;1.97;1.20;;;18.40;68.80;;;;;;5074430;28;20813;-83
2023/06/13 06:15:26;;;;;;;2.23;1.23;;;18.50;67.60;;;;;;5073034;28;20813;-83
2023/06/13 06:17:55;;;;;;;1.67;1.57;;;18.70;67.90;;;;;;5074037;28;20444;-83
2023/06/13 06:20:21;;;;;;;1.50;1.27;;;18.80;68.00;;;;;;5074197;28;20801;-83
2023/06/13 06:22:48;;;;;;;1.33;0.90;;;19.00;65.90;;;;;;5074400;28;20444;-84
2023/06/13 06:25:19;;;;;;;2.70;1.30;;;19.20;66.00;;;;;;5074222;28;20488;-84
2023/06/13 06:27:46;;;;;;;1.27;1.17;;;19.30;65.50;;;;;;5074343;28;20503;-83
2023/06/13 06:30:14;;;;;;;1.20;1.00;;;19.60;63.40;;;;;;5074087;28;20455;-85
2023/06/13 06:32:41;;;;;;;1.27;1.00;;;19.70;64.20;;;;;;5073855;28;20848;-84
2023/06/13 06:35:10;;;;;;;1.53;1.43;;;19.80;63.50;;;;;;5074146;28;20456;-83
2023/06/13 06:37:37;;;;;;;1.40;1.30;;;20.30;62.30;;;;;;5073974;28;20468;-83
2023/06/13 06:40:06;;;;;;;1.10;1.10;;;20.70;61.90;;;;;;5073980;28;20471;-84
2023/06/13 06:42:33;;;;;;;1.50;0.90;;;21.00;60.00;;;;;;5073805;28;20484;-82
2023/06/13 06:44:59;;;;;;;2.03;1.20;;;21.10;59.90;;;;;;5073748;28;20535;-86
2023/06/13 06:47:26;;;;;;;1.57;1.37;;;21.10;59.20;;;;;;5073894;28;20464;-84
2023/06/13 06:49:53;;;;;;;3.83;1.60;;;21.10;61.40;;;;;;5073885;28;20444;-82
2023/06/13 06:52:21;;;;;;;1.53;1.40;;;21.20;59.60;;;;;;5073889;28;20833;-83
2023/06/13 06:54:48;;;;;;;3.53;0.90;;;21.20;58.80;;;;;;5073910;28;20452;-83
2023/06/13 06:57:15;;;;;;;2.30;1.40;;;20.60;58.90;;;;;;5073353;28;20468;-82
2023/06/13 06:59:41;;;;;;;1.83;1.30;;;20.70;60.30;;;;;;5073749;28;20817;-82
2023/06/13 07:02:08;;;;;;;6.30;1.67;;;20.70;58.90;;;;;;5073676;28;20532;-82
2023/06/13 07:04:35;;;;;;;1.67;1.40;;;20.80;59.20;;;;;;5073657;28;20448;-82
2023/06/13 07:07:02;;;;;;;1.37;1.07;;;20.90;59.00;;;;;;5073575;28;21018;-81
2023/06/13 07:09:30;;;;;;;1.30;1.20;;;21.00;59.30;;;;;;5073291;28;20933;-81
2023/06/13 07:11:57;;;;;;;1.80;1.27;;;21.00;58.70;;;;;;5073359;28;20413;-80
2023/06/13 07:14:25;;;;;;;1.20;1.10;;;21.20;59.10;;;;;;5073521;28;20452;-81
2023/06/13 07:16:52;;;;;;;1.13;1.03;;;21.20;57.90;;;;;;5073483;28;20456;-81
2023/06/13 07:19:18;;;;;;;1.40;1.20;;;21.40;58.20;;;;;;5073142;28;20451;-81
2023/06/13 07:21:45;;;;;;;1.93;1.73;;;21.50;58.00;;;;;;5072991;28;20472;-83
2023/06/13 07:24:12;;;;;;;8.30;1.50;;;21.60;57.40;;;;;;5073068;28;20935;-81
2023/06/13 07:26:40;;;;;;;1.20;1.03;;;21.70;57.50;;;;;;5072588;28;20495;-81
2023/06/13 07:29:07;;;;;;;2.10;1.43;;;21.70;55.30;;;;;;5073349;28;20448;-81
2023/06/13 07:31:33;;;;;;;1.53;1.27;;;21.90;55.70;;;;;;5073449;28;20460;-81
2023/06/13 07:34:00;;;;;;;3.30;1.30;;;22.00;56.00;;;;;;5074047;28;20457;-80
2023/06/13 07:36:27;;;;;;;1.60;1.50;;;22.20;56.10;;;;;;5073222;28;20492;-80
2023/06/13 07:38:54;;;;;;;3.37;1.90;;;22.20;55.70;;;;;;5072917;28;20502;-82
2023/06/13 07:41:21;;;;;;;1.30;1.20;;;22.30;55.30;;;;;;5073229;28;20444;-80
2023/06/13 07:43:49;;;;;;;3.07;0.93;;;22.40;54.20;;;;;;5073221;28;20449;-80
2023/06/13 07:46:16;;;;;;;2.83;1.50;;;22.70;54.40;;;;;;5073004;28;20561;-79
2023/06/13 07:48:43;;;;;;;5.53;1.40;;;23.20;54.70;;;;;;5072889;28;20937;-81
2023/06/13 07:51:13;;;;;;;1.60;1.50;;;23.70;53.10;;;;;;5072845;28;21005;-80
2023/06/13 07:53:40;;;;;;;2.70;1.70;;;24.10;51.40;;;;;;5073053;28;20198;-80
2023/06/13 07:56:07;;;;;;;1.42;1.17;;;24.20;51.90;;;;;;5072946;28;20224;-80
2023/06/13 07:58:34;;;;;;;1.23;1.13;;;24.60;50.60;;;;;;5073054;28;20206;-80
2023/06/13 08:01:03;;;;;;;1.10;1.00;;;25.10;50.00;;;;;;5072771;28;20194;-80
2023/06/13 08:03:30;;;;;;;1.77;1.52;;;25.20;49.00;;;;;;5072609;28;20194;-80
2023/06/13 08:05:57;;;;;;;1.20;1.10;;;25.80;49.50;;;;;;5072814;28;20316;-80
2023/06/13 08:08:24;;;;;;;1.25;0.82;;;25.90;47.20;;;;;;5073192;28;20198;-80
2023/06/13 08:10:50;;;;;;;0.90;0.90;;;26.20;46.60;;;;;;5073210;28;20323;-80
2023/06/13 08:13:17;;;;;;;1.30;1.20;;;26.80;47.10;;;;;;5072564;28;20198;-81
2023/06/13 08:15:44;;;;;;;1.20;1.10;;;27.30;46.10;;;;;;5072754;28;20217;-80
2023/06/13 08:18:13;;;;;;;1.48;1.20;;;28.30;44.40;;;;;;5072872;28;20205;-80
2023/06/13 08:20:40;;;;;;;1.20;1.10;;;28.90;43.50;;;;;;5072592;28;20231;-83
2023/06/13 08:23:06;;;;;;;1.08;1.08;;;30.30;42.90;;;;;;5072999;28;20192;-84
2023/06/13 08:25:33;;;;;;;1.50;1.40;;;31.40;40.30;;;;;;5072902;28;20233;-84
2023/06/13 08:28:00;;;;;;;1.20;1.10;;;32.00;40.20;;;;;;5072919;28;20303;-86
2023/06/13 08:30:27;;;;;;;2.22;1.38;;;31.90;37.80;;;;;;5073051;28;20218;-84
2023/06/13 08:32:54;;;;;;;1.13;1.02;;;31.60;37.80;;;;;;5072517;28;20228;-84
2023/06/13 08:35:22;;;;;;;1.17;1.08;;;30.50;37.80;;;;;;5072419;28;20204;-85
2023/06/13 08:37:49;;;;;;;1.27;1.17;;;29.50;39.10;;;;;;5072668;28;20218;-85
2023/06/13 08:40:19;;;;;;;1.38;1.27;;;28.60;40.70;;;;;;5075029;28;20690;-81
2023/06/13 08:42:47;;;;;;;1.45;1.35;;;27.90;41.40;;;;;;5076176;28;20298;-81
2023/06/13 08:45:15;;;;;;;2.08;1.58;;;27.40;40.40;;;;;;5076277;28;20182;-81
2023/06/13 08:47:46;;;;;;;1.15;1.05;;;26.70;41.40;;;;;;5076118;28;20320;-82
2023/06/13 08:50:14;;;;;;;2.40;1.10;;;26.30;42.20;;;;;;5075797;28;20568;-81
2023/06/13 08:52:44;;;;;;;2.35;1.40;;;26.50;41.60;;;;;;5075709;28;20202;-81
2023/06/13 08:55:13;;;;;;;1.02;1.00;;;27.10;42.40;;;;;;5075965;28;20208;-81
2023/06/13 08:57:41;;;;;;;3.70;1.65;;;27.50;42.20;;;;;;5075870;28;20276;-80
2023/06/13 09:00:10;;;;;;;1.17;1.08;;;28.20;42.10;;;;;;5075520;28;20571;-81
2023/06/13 09:02:38;;;;;;;1.17;1.08;;;28.10;42.30;;;;;;5075827;28;20251;-82
2023/06/13 09:05:05;;;;;;;2.15;1.65;;;27.70;42.50;;;;;;5075899;28;20265;-81
2023/06/13 09:07:33;;;;;;;1.58;1.20;;;27.20;42.90;;;;;;5075650;28;20261;-82
2023/06/13 09:10:01;;;;;;;1.13;1.02;;;26.50;44.70;;;;;;5075781;28;20254;-81
2023/06/13 09:12:28;;;;;;;1.63;1.52;;;25.70;44.20;;;;;;5075544;28;20205;-79
2023/06/13 09:14:55;;;;;;;2.50;1.83;;;25.20;43.40;;;;;;5075640;28;20204;-81
2023/06/13 09:17:22;;;;;;;5.50;1.35;;;24.60;44.30;;;;;;5075344;28;20728;-80
2023/06/13 09:19:48;;;;;;;1.30;1.20;;;24.40;45.10;;;;;;5075454;28;20206;-80
2023/06/13 09:22:18;;;;;;;1.40;1.30;;;24.30;46.40;;;;;;5075094;28;20233;-80
2023/06/13 09:24:45;;;;;;;2.08;1.52;;;24.20;46.10;;;;;;5075165;28;20206;-80
2023/06/13 09:27:13;;;;;;;1.90;1.33;;;24.20;45.70;;;;;;5075348;28;20226;-80
2023/06/13 09:29:40;;;;;;;1.57;1.47;;;24.10;45.80;;;;;;5075417;28;20252;-80
2023/06/13 09:32:10;;;;;;;1.50;1.40;;;23.90;45.90;;;;;;5075405;28;20186;-81
2023/06/13 09:34:38;;;;;;;3.73;1.73;;;23.60;46.10;;;;;;5075316;28;20237;-81
2023/06/13 09:37:07;;;;;;;1.77;1.30;;;23.60;47.00;;;;;;5075188;28;20522;-81
2023/06/13 09:39:35;;;;;;;2.13;1.30;;;23.80;46.20;;;;;;5075225;28;20444;-81
2023/06/13 09:42:05;;;;;;;1.40;1.20;;;23.90;47.60;;;;;;5074872;28;20455;-81
2023/06/13 09:44:34;;;;;;;1.70;1.60;;;24.10;47.30;;;;;;5075105;28;20448;-81
2023/06/13 09:47:01;;;;;;;1.53;1.43;;;24.10;47.60;;;;;;5074939;28;20229;-81
2023/06/13 09:49:29;;;;;;;1.50;1.40;;;24.10;47.20;;;;;;5074523;28;20474;-81
2023/06/13 09:51:58;;;;;;;1.73;1.63;;;24.10;47.00;;;;;;5074901;28;20448;-80
2023/06/13 09:54:29;;;;;;;2.77;1.20;;;24.00;46.60;;;;;;5074886;28;20201;-81
2023/06/13 09:56:56;;;;;;;1.87;1.20;;;23.90;48.10;;;;;;5074561;28;20222;-80
2023/06/13 09:59:23;;;;;;;3.70;1.63;;;24.00;46.90;;;;;;5074587;28;20455;-80
2023/06/13 10:01:51;;;;;;;1.57;1.47;;;24.00;47.10;;;;;;5074442;28;20669;-80
2023/06/13 10:04:21;;;;;;;2.10;1.90;;;24.20;46.70;;;;;;5074719;28;20497;-82
2023/06/13 10:06:48;;;;;;;2.73;1.70;;;24.10;46.20;;;;;;5074061;28;20480;-79
2023/06/13 10:09:14;;;;;;;1.60;1.50;;;24.00;46.60;;;;;;5074485;28;20209;-80
2023/06/13 10:11:48;;;;;;;1.23;1.10;;;24.00;47.20;;;;;;5075330;28;20213;-81
2023/06/13 10:14:19;;;;;;;2.67;1.33;;;23.90;47.10;;;;;;5074283;28;20649;-81
2023/06/13 10:16:52;;;;;;;1.40;1.30;;;23.90;46.20;;;;;;5074463;28;20476;-81
2023/06/13 10:19:21;;;;;;;2.87;1.87;;;23.80;46.90;;;;;;5074424;28;20223;-83
2023/06/13 10:21:49;;;;;;;2.43;1.37;;;23.90;47.10;;;;;;5073996;28;20476;-82
2023/06/13 10:24:16;;;;;;;1.60;1.43;;;24.00;47.10;;;;;;5074370;28;20206;-80
2023/06/13 10:26:45;;;;;;;2.10;1.87;;;24.00;45.30;;;;;;5074069;28;20229;-80
2023/06/13 10:29:51;;;;;;;0.90;0.90;;;23.90;45.10;;;;;;5073943;28;20670;-82
2023/06/13 10:32:35;;;;;;;3.10;1.70;;;23.70;44.50;;;;;;5031933;28;20442;-81
2023/06/13 10:35:37;;;;;;;1.40;1.20;;;23.60;45.70;;;;;;5072334;28;20455;-80
2023/06/13 10:38:33;;;;;;;1.13;1.03;;;23.60;45.30;;;;;;5074068;28;20785;-80
2023/06/13 10:41:20;;;;;;;1.77;1.33;;;23.70;44.90;;;;;;5074015;28;20448;-80
2023/06/13 10:43:52;;;;;;;3.77;1.80;;;23.90;44.10;;;;;;5052930;28;20451;-80
2023/06/13 10:46:19;;;;;;;1.50;1.40;;;23.90;45.20;;;;;;5073855;28;20495;-80
2023/06/13 10:48:48;;;;;;;1.97;1.47;;;24.00;46.00;;;;;;5073922;28;20444;-80
2023/06/13 10:51:21;;;;;;;1.40;1.30;;;24.10;46.60;;;;;;5073892;28;20198;-80
2023/06/13 10:53:57;;;;;;;1.93;1.83;;;24.30;46.10;;;;;;5073795;28;20436;-80
2023/06/13 10:56:29;;;;;;;3.90;1.83;;;24.40;46.20;;;;;;5073458;28;20225;-84
2023/06/13 10:59:02;;;;;;;4.90;2.20;;;24.60;46.80;;;;;;5074027;28;20205;-80
2023/06/13 11:01:30;;;;;;;2.20;1.93;;;24.80;46.20;;;;;;5073295;28;20190;-83
2023/06/13 11:04:14;;;;;;;1.10;1.05;;;25.00;45.40;;;;;;5074071;28;20202;-84
2023/06/13 11:06:43;;;;;;;1.13;1.00;;;25.10;45.60;;;;;;5073313;28;20622;-84
2023/06/13 11:09:21;;;;;;;1.50;1.40;;;25.50;42.80;;;;;;5073746;28;20681;-87
2023/06/13 11:11:49;;;;;;;2.03;1.80;;;25.40;43.40;;;;;;5073661;28;20200;-86
2023/06/13 11:14:17;;;;;;;1.88;1.77;;;25.30;43.90;;;;;;5073939;28;20208;-88
2023/06/13 11:16:45;;;;;;;1.30;1.20;;;25.00;44.20;;;;;;5073616;28;20686;-84
2023/06/13 11:19:17;;;;;;;1.50;1.40;;;24.70;44.60;;;;;;5073453;28;20288;-84
2023/06/13 11:21:46;;;;;;;4.27;2.43;;;24.60;44.30;;;;;;5073141;28;20256;-83
2023/06/13 11:24:17;;;;;;;1.85;1.75;;;24.50;45.30;;;;;;5073468;28;20206;-83
2023/06/13 11:26:45;;;;;;;2.03;1.50;;;24.60;45.40;;;;;;5073099;28;20245;-83
2023/06/13 11:29:13;;;;;;;1.60;1.50;;;24.50;46.20;;;;;;5073080;28;20582;-83
2023/06/13 11:31:41;;;;;;;3.37;2.07;;;24.60;45.50;;;;;;5073338;28;20593;-83
2023/06/13 11:34:14;;;;;;;2.85;1.30;;;24.60;44.70;;;;;;5073577;28;20225;-85
2023/06/13 11:36:43;;;;;;;1.87;1.67;;;24.60;45.70;;;;;;5072962;28;20217;-82
2023/06/13 11:39:13;;;;;;;7.30;1.93;;;24.60;44.30;;;;;;5073317;28;20202;-83
2023/06/13 11:41:40;;;;;;;1.90;1.20;;;24.50;44.70;;;;;;5072935;28;20237;-84
2023/06/13 11:44:07;;;;;;;1.40;1.30;;;24.50;45.10;;;;;;5073307;28;20202;-83
2023/06/13 11:46:35;;;;;;;2.20;1.77;;;24.60;45.10;;;;;;5073108;28;20609;-83
2023/06/13 11:49:02;;;;;;;1.50;1.40;;;24.60;44.40;;;;;;5073200;28;20202;-83
2023/06/13 11:51:31;;;;;;;1.90;1.47;;;24.60;45.10;;;;;;5072956;28;20700;-84
2023/06/13 11:54:00;;;;;;;1.90;1.80;;;24.60;43.10;;;;;;5072863;28;20202;-83
2023/06/13 11:56:30;;;;;;;1.60;1.50;;;24.30;42.10;;;;;;5073138;28;20232;-83
2023/06/13 11:58:57;;;;;;;1.40;1.30;;;24.10;42.50;;;;;;5073150;28;20227;-83
2023/06/13 12:01:26;;;;;;;2.30;2.03;;;24.10;42.00;;;;;;5073111;28;20662;-83
2023/06/13 12:03:54;;;;;;;1.50;1.40;;;24.00;42.80;;;;;;5073134;28;20452;-84
2023/06/13 12:06:22;;;;;;;1.30;1.20;;;24.10;42.00;;;;;;5073035;28;20642;-84
2023/06/13 12:08:51;;;;;;;2.53;1.80;;;24.00;41.70;;;;;;5072992;28;20303;-83
2023/06/13 12:11:19;;;;;;;1.43;1.20;;;23.90;42.60;;;;;;5073067;28;20206;-84
2023/06/13 12:13:55;;;;;;;2.43;1.90;;;23.90;43.00;;;;;;5075769;28;20543;-83
2023/06/13 12:16:26;;;;;;;1.83;1.73;;;23.80;43.10;;;;;;5076570;28;20490;-83
2023/06/13 12:18:54;;;;;;;2.87;1.97;;;23.80;43.40;;;;;;5077458;28;20794;-82
2023/06/13 12:21:22;;;;;;;1.17;1.17;;;23.80;43.90;;;;;;5078027;28;20283;-83
2023/06/13 12:23:49;;;;;;;1.60;1.50;;;23.90;44.70;;;;;;5078021;28;20478;-83
2023/06/13 12:26:17;;;;;;;3.13;1.80;;;23.90;44.00;;;;;;5079354;28;20506;-83
2023/06/13 12:28:44;;;;;;;1.50;1.40;;;23.90;42.50;;;;;;5078833;28;20879;-83
2023/06/13 12:31:12;;;;;;;2.00;1.63;;;23.90;41.30;;;;;;5078672;28;20198;-84
2023/06/13 12:33:41;;;;;;;1.37;1.27;;;23.80;42.30;;;;;;5078582;28;20453;-82
2023/06/13 12:36:09;;;;;;;3.00;1.37;;;23.70;44.00;;;;;;5077542;28;20884;-83
2023/06/13 12:38:36;;;;;;;1.53;1.43;;;23.70;43.40;;;;;;5078534;28;20900;-83
2023/06/13 12:41:12;;;;;;;3.47;1.57;;;23.80;43.50;;;;;;5077027;28;20444;-83
2023/06/13 12:43:42;;;;;;;3.37;2.20;;;23.80;44.80;;;;;;5076539;28;20438;-82
2023/06/13 12:46:09;;;;;;;4.00;1.83;;;23.70;45.50;;;;;;5076832;28;20464;-84
2023/06/13 12:48:38;;;;;;;1.77;1.50;;;23.80;44.70;;;;;;5076404;28;20841;-84
2023/06/13 12:51:07;;;;;;;1.50;1.40;;;23.80;43.70;;;;;;5076662;28;20535;-84
2023/06/13 12:53:34;;;;;;;3.47;1.67;;;23.80;44.40;;;;;;5076057;28;21005;-83
2023/06/13 12:56:03;;;;;;;1.33;1.33;;;23.70;45.00;;;;;;5076020;28;20468;-83